sensor_id;sensor_type;location;lat;lon;timestamp;temperature;humidity
8778;DHT22;4425;50.872;4.712;2023-01-29T00:01:34;-1.10;99.90
8778;DHT22;4425;50.872;4.712;2023-01-29T00:04:05;-1.10;99.90
8778;DHT22;4425;50.872;4.712;2023-01-29T00:06:33;-1.10;99.90
8778;DHT22;4425;50.872;4.712;2023-01-29T00:09:02;-1.10;99.90
8778;DHT22;4425;50.872;4.712;2023-01-29T00:11:32;-1.10;99.90
8778;DHT22;4425;50.872;4.712;2023-01-29T00:14:00;-1.20;99.90
8778;DHT22;4425;50.872;4.712;2023-01-29T00:16:35;-1.20;99.90
8778;DHT22;4425;50.872;4.712;2023-01-29T00:19:04;-1.20;99.90
8778;DHT22;4425;50.872;4.712;2023-01-29T00:21:32;-1.20;99.90
8778;DHT22;4425;50.872;4.712;2023-01-29T00:24:03;-1.20;99.90
8778;DHT22;4425;50.872;4.712;2023-01-29T00:26:32;-1.20;99.90
8778;DHT22;4425;50.872;4.712;2023-01-29T00:29:03;-1.20;99.90
8778;DHT22;4425;50.872;4.712;2023-01-29T00:31:32;-1.20;99.90
8778;DHT22;4425;50.872;4.712;2023-01-29T00:33:59;-1.20;99.90
8778;DHT22;4425;50.872;4.712;2023-01-29T00:36:26;-1.30;99.90
8778;DHT22;4425;50.872;4.712;2023-01-29T00:38:54;-1.30;99.90
8778;DHT22;4425;50.872;4.712;2023-01-29T00:41:25;-1.30;99.90
8778;DHT22;4425;50.872;4.712;2023-01-29T00:44:12;-1.30;99.90
8778;DHT22;4425;50.872;4.712;2023-01-29T00:46:58;-1.30;99.90
8778;DHT22;4425;50.872;4.712;2023-01-29T00:49:27;-1.30;99.90
8778;DHT22;4425;50.872;4.712;2023-01-29T00:51:56;-1.30;99.90
8778;DHT22;4425;50.872;4.712;2023-01-29T00:54:40;-1.30;99.90
8778;DHT22;4425;50.872;4.712;2023-01-29T00:57:10;-1.20;99.90
8778;DHT22;4425;50.872;4.712;2023-01-29T00:59:39;-1.30;99.90
8778;DHT22;4425;50.872;4.712;2023-01-29T01:02:07;-1.30;99.90
8778;DHT22;4425;50.872;4.712;2023-01-29T01:04:52;-1.30;99.90
8778;DHT22;4425;50.872;4.712;2023-01-29T01:07:19;-1.40;99.90
8778;DHT22;4425;50.872;4.712;2023-01-29T01:09:47;-1.40;99.90
8778;DHT22;4425;50.872;4.712;2023-01-29T01:12:33;-1.40;99.90
8778;DHT22;4425;50.872;4.712;2023-01-29T01:15:05;-1.40;99.90
8778;DHT22;4425;50.872;4.712;2023-01-29T01:17:32;-1.40;99.90
8778;DHT22;4425;50.872;4.712;2023-01-29T01:19:59;-1.50;99.90
8778;DHT22;4425;50.872;4.712;2023-01-29T01:22:27;-1.50;99.90
8778;DHT22;4425;50.872;4.712;2023-01-29T01:24:59;-1.60;99.90
8778;DHT22;4425;50.872;4.712;2023-01-29T01:27:27;-1.60;99.90
8778;DHT22;4425;50.872;4.712;2023-01-29T01:29:54;-1.60;99.90
8778;DHT22;4425;50.872;4.712;2023-01-29T01:32:27;-1.60;99.90
8778;DHT22;4425;50.872;4.712;2023-01-29T01:34:55;-1.40;99.90
8778;DHT22;4425;50.872;4.712;2023-01-29T01:37:22;-1.60;99.90
8778;DHT22;4425;50.872;4.712;2023-01-29T01:39:49;-1.60;99.90
8778;DHT22;4425;50.872;4.712;2023-01-29T01:42:16;-1.70;99.90
8778;DHT22;4425;50.872;4.712;2023-01-29T01:44:55;-1.70;99.90
8778;DHT22;4425;50.872;4.712;2023-01-29T01:47:32;-1.70;99.90
8778;DHT22;4425;50.872;4.712;2023-01-29T01:50:05;-1.70;99.90
8778;DHT22;4425;50.872;4.712;2023-01-29T01:52:35;-1.70;99.90
8778;DHT22;4425;50.872;4.712;2023-01-29T01:55:05;-1.70;99.90
8778;DHT22;4425;50.872;4.712;2023-01-29T01:57:32;-1.70;99.90
8778;DHT22;4425;50.872;4.712;2023-01-29T02:00:05;-1.70;99.90
8778;DHT22;4425;50.872;4.712;2023-01-29T02:02:39;-1.70;99.90
8778;DHT22;4425;50.872;4.712;2023-01-29T02:05:24;-1.70;99.90
8778;DHT22;4425;50.872;4.712;2023-01-29T02:08:11;-1.70;99.90
8778;DHT22;4425;50.872;4.712;2023-01-29T02:10:57;-1.80;99.90
8778;DHT22;4425;50.872;4.712;2023-01-29T02:13:25;-1.70;99.90
8778;DHT22;4425;50.872;4.712;2023-01-29T02:15:53;-1.80;99.90
8778;DHT22;4425;50.872;4.712;2023-01-29T02:18:27;-1.80;99.90
8778;DHT22;4425;50.872;4.712;2023-01-29T02:21:14;-1.80;99.90
8778;DHT22;4425;50.872;4.712;2023-01-29T02:26:57;-1.90;99.90
8778;DHT22;4425;50.872;4.712;2023-01-29T02:29:39;-1.90;99.90
8778;DHT22;4425;50.872;4.712;2023-01-29T02:32:21;-1.70;99.90
8778;DHT22;4425;50.872;4.712;2023-01-29T02:35:05;-1.90;99.90
8778;DHT22;4425;50.872;4.712;2023-01-29T02:38:00;-1.90;99.90
8778;DHT22;4425;50.872;4.712;2023-01-29T02:40:32;-1.90;99.90
8778;DHT22;4425;50.872;4.712;2023-01-29T02:43:07;-1.90;99.90
8778;DHT22;4425;50.872;4.712;2023-01-29T02:45:47;-1.90;99.90
8778;DHT22;4425;50.872;4.712;2023-01-29T02:48:38;-1.80;99.90
8778;DHT22;4425;50.872;4.712;2023-01-29T02:51:11;-1.80;99.90
8778;DHT22;4425;50.872;4.712;2023-01-29T02:53:45;-2.00;99.90
8778;DHT22;4425;50.872;4.712;2023-01-29T02:56:17;-1.80;99.90
8778;DHT22;4425;50.872;4.712;2023-01-29T02:58:49;-1.80;99.90
8778;DHT22;4425;50.872;4.712;2023-01-29T03:01:25;-1.80;99.90
8778;DHT22;4425;50.872;4.712;2023-01-29T03:04:03;-1.70;99.90
8778;DHT22;4425;50.872;4.712;2023-01-29T03:06:37;-1.90;99.90
8778;DHT22;4425;50.872;4.712;2023-01-29T03:09:10;-1.90;99.90
8778;DHT22;4425;50.872;4.712;2023-01-29T03:11:41;-1.90;99.90
8778;DHT22;4425;50.872;4.712;2023-01-29T03:14:22;-1.90;99.90
8778;DHT22;4425;50.872;4.712;2023-01-29T03:16:55;-1.90;99.90
8778;DHT22;4425;50.872;4.712;2023-01-29T03:19:30;-1.90;99.90
8778;DHT22;4425;50.872;4.712;2023-01-29T03:22:07;-1.90;99.90
8778;DHT22;4425;50.872;4.712;2023-01-29T03:24:43;-1.90;99.90
8778;DHT22;4425;50.872;4.712;2023-01-29T03:27:32;-1.90;99.90
8778;DHT22;4425;50.872;4.712;2023-01-29T03:30:20;-2.00;99.90
8778;DHT22;4425;50.872;4.712;2023-01-29T03:33:08;-2.00;99.90
8778;DHT22;4425;50.872;4.712;2023-01-29T03:35:43;-1.90;99.90
8778;DHT22;4425;50.872;4.712;2023-01-29T03:38:27;-1.80;99.90
8778;DHT22;4425;50.872;4.712;2023-01-29T03:41:00;-1.70;99.90
8778;DHT22;4425;50.872;4.712;2023-01-29T03:43:43;-1.60;99.90
8778;DHT22;4425;50.872;4.712;2023-01-29T03:46:19;-1.60;99.90
8778;DHT22;4425;50.872;4.712;2023-01-29T03:48:53;-1.60;99.90
8778;DHT22;4425;50.872;4.712;2023-01-29T03:51:26;-1.60;99.90
8778;DHT22;4425;50.872;4.712;2023-01-29T03:54:04;-1.60;99.90
8778;DHT22;4425;50.872;4.712;2023-01-29T03:56:42;-1.60;99.90
8778;DHT22;4425;50.872;4.712;2023-01-29T03:59:20;-1.70;99.90
8778;DHT22;4425;50.872;4.712;2023-01-29T04:01:52;-1.70;99.90
8778;DHT22;4425;50.872;4.712;2023-01-29T04:04:23;-1.80;99.90
8778;DHT22;4425;50.872;4.712;2023-01-29T04:06:54;-1.80;99.90
8778;DHT22;4425;50.872;4.712;2023-01-29T04:09:28;-1.90;99.90
8778;DHT22;4425;50.872;4.712;2023-01-29T04:12:03;-1.90;99.90
8778;DHT22;4425;50.872;4.712;2023-01-29T04:14:32;-1.90;99.90
8778;DHT22;4425;50.872;4.712;2023-01-29T04:17:04;-2.00;99.90
8778;DHT22;4425;50.872;4.712;2023-01-29T04:19:38;-2.00;99.90
8778;DHT22;4425;50.872;4.712;2023-01-29T04:22:12;-2.00;99.90
8778;DHT22;4425;50.872;4.712;2023-01-29T04:24:42;-2.10;99.90
8778;DHT22;4425;50.872;4.712;2023-01-29T04:27:25;-2.10;99.90
8778;DHT22;4425;50.872;4.712;2023-01-29T04:30:06;-2.10;99.90
8778;DHT22;4425;50.872;4.712;2023-01-29T04:33:02;-2.20;99.90
8778;DHT22;4425;50.872;4.712;2023-01-29T04:35:40;-2.20;99.90
8778;DHT22;4425;50.872;4.712;2023-01-29T04:38:14;-2.20;99.90
8778;DHT22;4425;50.872;4.712;2023-01-29T04:40:50;-2.20;99.90
8778;DHT22;4425;50.872;4.712;2023-01-29T04:43:27;-2.20;99.90
8778;DHT22;4425;50.872;4.712;2023-01-29T04:46:10;-2.20;99.90
8778;DHT22;4425;50.872;4.712;2023-01-29T04:49:01;-2.20;99.90
8778;DHT22;4425;50.872;4.712;2023-01-29T04:51:40;-2.30;99.90
8778;DHT22;4425;50.872;4.712;2023-01-29T04:54:15;-2.20;99.90
8778;DHT22;4425;50.872;4.712;2023-01-29T04:56:50;-2.30;99.90
8778;DHT22;4425;50.872;4.712;2023-01-29T04:59:22;-2.20;99.90
8778;DHT22;4425;50.872;4.712;2023-01-29T05:01:52;-2.20;99.90
8778;DHT22;4425;50.872;4.712;2023-01-29T05:04:19;-2.20;99.90
8778;DHT22;4425;50.872;4.712;2023-01-29T05:06:51;-2.10;99.90
8778;DHT22;4425;50.872;4.712;2023-01-29T05:09:19;-2.00;99.90
8778;DHT22;4425;50.872;4.712;2023-01-29T05:11:46;-2.00;99.90
8778;DHT22;4425;50.872;4.712;2023-01-29T05:14:17;-2.00;99.90
8778;DHT22;4425;50.872;4.712;2023-01-29T05:16:49;-2.00;99.90
8778;DHT22;4425;50.872;4.712;2023-01-29T05:19:17;-1.90;99.90
8778;DHT22;4425;50.872;4.712;2023-01-29T05:21:46;-1.90;99.90
8778;DHT22;4425;50.872;4.712;2023-01-29T05:24:18;-1.90;99.90
8778;DHT22;4425;50.872;4.712;2023-01-29T05:26:47;-1.80;99.90
8778;DHT22;4425;50.872;4.712;2023-01-29T05:29:32;-1.80;99.90
8778;DHT22;4425;50.872;4.712;2023-01-29T05:32:06;-1.70;99.90
8778;DHT22;4425;50.872;4.712;2023-01-29T05:37:50;-1.60;99.90
8778;DHT22;4425;50.872;4.712;2023-01-29T05:40:19;-1.60;99.90
8778;DHT22;4425;50.872;4.712;2023-01-29T05:42:46;-1.60;99.90
8778;DHT22;4425;50.872;4.712;2023-01-29T05:45:14;-1.60;99.90
8778;DHT22;4425;50.872;4.712;2023-01-29T05:47:41;-1.60;99.90
8778;DHT22;4425;50.872;4.712;2023-01-29T05:50:09;-1.60;99.90
8778;DHT22;4425;50.872;4.712;2023-01-29T05:52:36;-1.60;99.90
8778;DHT22;4425;50.872;4.712;2023-01-29T05:55:05;-1.40;99.90
8778;DHT22;4425;50.872;4.712;2023-01-29T05:57:34;-1.50;99.90
8778;DHT22;4425;50.872;4.712;2023-01-29T06:00:02;-1.50;99.90
8778;DHT22;4425;50.872;4.712;2023-01-29T06:02:30;-1.40;99.90
8778;DHT22;4425;50.872;4.712;2023-01-29T06:04:58;-1.30;99.90
8778;DHT22;4425;50.872;4.712;2023-01-29T06:07:25;-1.30;99.90
8778;DHT22;4425;50.872;4.712;2023-01-29T06:09:53;-1.30;99.90
8778;DHT22;4425;50.872;4.712;2023-01-29T06:12:20;-1.20;99.90
8778;DHT22;4425;50.872;4.712;2023-01-29T06:14:51;-1.20;99.90
8778;DHT22;4425;50.872;4.712;2023-01-29T06:17:19;-1.20;99.90
8778;DHT22;4425;50.872;4.712;2023-01-29T06:20:00;-1.10;99.90
8778;DHT22;4425;50.872;4.712;2023-01-29T06:22:28;-1.10;99.90
8778;DHT22;4425;50.872;4.712;2023-01-29T06:24:55;-1.00;99.90
8778;DHT22;4425;50.872;4.712;2023-01-29T06:27:31;-1.00;99.90
8778;DHT22;4425;50.872;4.712;2023-01-29T06:33:41;-1.00;99.90
8778;DHT22;4425;50.872;4.712;2023-01-29T06:36:08;-1.00;99.90
8778;DHT22;4425;50.872;4.712;2023-01-29T06:38:37;-0.90;99.90
8778;DHT22;4425;50.872;4.712;2023-01-29T06:41:10;-0.90;99.90
8778;DHT22;4425;50.872;4.712;2023-01-29T06:43:43;-0.90;99.90
8778;DHT22;4425;50.872;4.712;2023-01-29T06:46:12;-0.90;99.90
8778;DHT22;4425;50.872;4.712;2023-01-29T06:48:44;-0.80;99.90
8778;DHT22;4425;50.872;4.712;2023-01-29T06:51:11;-0.80;99.90
8778;DHT22;4425;50.872;4.712;2023-01-29T06:53:41;-0.80;99.90
8778;DHT22;4425;50.872;4.712;2023-01-29T06:56:15;-0.80;99.90
8778;DHT22;4425;50.872;4.712;2023-01-29T06:58:42;-0.70;99.90
8778;DHT22;4425;50.872;4.712;2023-01-29T07:01:10;-0.70;99.90
8778;DHT22;4425;50.872;4.712;2023-01-29T07:03:38;-0.70;99.90
8778;DHT22;4425;50.872;4.712;2023-01-29T07:06:08;-0.60;99.90
8778;DHT22;4425;50.872;4.712;2023-01-29T07:08:35;-0.60;99.90
8778;DHT22;4425;50.872;4.712;2023-01-29T07:11:03;-0.60;99.90
8778;DHT22;4425;50.872;4.712;2023-01-29T07:13:30;-0.50;99.90
8778;DHT22;4425;50.872;4.712;2023-01-29T07:15:58;-0.50;99.90
8778;DHT22;4425;50.872;4.712;2023-01-29T07:18:25;-0.50;99.90
8778;DHT22;4425;50.872;4.712;2023-01-29T07:20:52;-0.50;99.90
8778;DHT22;4425;50.872;4.712;2023-01-29T07:23:21;-0.40;99.90
8778;DHT22;4425;50.872;4.712;2023-01-29T07:25:50;-0.40;99.90
8778;DHT22;4425;50.872;4.712;2023-01-29T07:28:18;-0.40;99.90
8778;DHT22;4425;50.872;4.712;2023-01-29T07:30:47;-0.40;99.90
8778;DHT22;4425;50.872;4.712;2023-01-29T07:33:15;-0.30;99.90
8778;DHT22;4425;50.872;4.712;2023-01-29T07:35:48;-0.30;99.90
8778;DHT22;4425;50.872;4.712;2023-01-29T07:38:15;-0.30;99.90
8778;DHT22;4425;50.872;4.712;2023-01-29T07:40:50;0.00;99.90
8778;DHT22;4425;50.872;4.712;2023-01-29T07:43:20;0.00;99.90
8778;DHT22;4425;50.872;4.712;2023-01-29T07:45:49;-0.20;99.90
8778;DHT22;4425;50.872;4.712;2023-01-29T07:48:26;-0.10;99.90
8778;DHT22;4425;50.872;4.712;2023-01-29T07:50:54;0.00;99.90
8778;DHT22;4425;50.872;4.712;2023-01-29T07:53:21;0.10;99.90
8778;DHT22;4425;50.872;4.712;2023-01-29T07:55:58;0.00;99.90
8778;DHT22;4425;50.872;4.712;2023-01-29T07:58:26;0.10;99.90
8778;DHT22;4425;50.872;4.712;2023-01-29T08:00:53;0.20;99.90
8778;DHT22;4425;50.872;4.712;2023-01-29T08:03:20;0.10;99.90
8778;DHT22;4425;50.872;4.712;2023-01-29T08:05:49;0.20;99.90
8778;DHT22;4425;50.872;4.712;2023-01-29T08:08:16;0.30;99.90
8778;DHT22;4425;50.872;4.712;2023-01-29T08:10:44;0.30;99.90
8778;DHT22;4425;50.872;4.712;2023-01-29T08:13:12;0.30;99.90
8778;DHT22;4425;50.872;4.712;2023-01-29T08:15:42;0.30;99.90
8778;DHT22;4425;50.872;4.712;2023-01-29T08:18:12;0.40;99.90
8778;DHT22;4425;50.872;4.712;2023-01-29T08:20:41;0.40;99.90
8778;DHT22;4425;50.872;4.712;2023-01-29T08:23:14;0.50;99.90
8778;DHT22;4425;50.872;4.712;2023-01-29T08:25:41;0.50;99.90
8778;DHT22;4425;50.872;4.712;2023-01-29T08:28:08;0.50;99.90
8778;DHT22;4425;50.872;4.712;2023-01-29T08:30:39;0.50;99.90
8778;DHT22;4425;50.872;4.712;2023-01-29T08:33:12;0.60;99.90
8778;DHT22;4425;50.872;4.712;2023-01-29T08:35:41;0.60;99.90
8778;DHT22;4425;50.872;4.712;2023-01-29T08:38:08;0.60;99.90
8778;DHT22;4425;50.872;4.712;2023-01-29T08:40:37;0.60;99.90
8778;DHT22;4425;50.872;4.712;2023-01-29T08:43:06;0.70;99.90
8778;DHT22;4425;50.872;4.712;2023-01-29T08:45:35;0.70;99.90
8778;DHT22;4425;50.872;4.712;2023-01-29T08:48:05;0.80;99.90
8778;DHT22;4425;50.872;4.712;2023-01-29T08:50:43;0.90;99.90
8778;DHT22;4425;50.872;4.712;2023-01-29T08:53:13;0.80;99.90
8778;DHT22;4425;50.872;4.712;2023-01-29T08:58:54;0.90;99.90
8778;DHT22;4425;50.872;4.712;2023-01-29T09:01:22;0.90;99.90
8778;DHT22;4425;50.872;4.712;2023-01-29T09:03:53;1.00;99.90
8778;DHT22;4425;50.872;4.712;2023-01-29T09:06:20;1.00;99.90
8778;DHT22;4425;50.872;4.712;2023-01-29T09:08:48;1.00;99.90
8778;DHT22;4425;50.872;4.712;2023-01-29T09:11:18;1.10;99.90
8778;DHT22;4425;50.872;4.712;2023-01-29T09:13:46;1.10;99.90
8778;DHT22;4425;50.872;4.712;2023-01-29T09:16:17;1.20;99.90
8778;DHT22;4425;50.872;4.712;2023-01-29T09:18:44;1.20;99.90
8778;DHT22;4425;50.872;4.712;2023-01-29T09:21:24;1.30;99.90
8778;DHT22;4425;50.872;4.712;2023-01-29T09:23:51;1.30;99.90
8778;DHT22;4425;50.872;4.712;2023-01-29T09:26:19;1.40;99.90
8778;DHT22;4425;50.872;4.712;2023-01-29T09:28:49;1.40;99.90
8778;DHT22;4425;50.872;4.712;2023-01-29T09:31:17;1.40;99.90
8778;DHT22;4425;50.872;4.712;2023-01-29T09:33:45;1.40;99.90
8778;DHT22;4425;50.872;4.712;2023-01-29T09:36:17;1.40;99.90
8778;DHT22;4425;50.872;4.712;2023-01-29T09:38:45;1.50;99.90
8778;DHT22;4425;50.872;4.712;2023-01-29T09:41:21;1.50;99.90
8778;DHT22;4425;50.872;4.712;2023-01-29T09:43:55;1.50;99.90
8778;DHT22;4425;50.872;4.712;2023-01-29T09:46:28;1.40;99.90
8778;DHT22;4425;50.872;4.712;2023-01-29T09:49:00;1.50;99.90
8778;DHT22;4425;50.872;4.712;2023-01-29T09:51:37;1.50;99.90
8778;DHT22;4425;50.872;4.712;2023-01-29T09:54:14;1.60;99.90
8778;DHT22;4425;50.872;4.712;2023-01-29T09:56:44;1.60;99.90
8778;DHT22;4425;50.872;4.712;2023-01-29T09:59:13;1.60;99.90
8778;DHT22;4425;50.872;4.712;2023-01-29T10:01:52;1.60;99.90
8778;DHT22;4425;50.872;4.712;2023-01-29T10:04:43;1.60;99.90
8778;DHT22;4425;50.872;4.712;2023-01-29T10:07:31;1.70;99.90
8778;DHT22;4425;50.872;4.712;2023-01-29T10:10:21;1.70;99.90
8778;DHT22;4425;50.872;4.712;2023-01-29T10:12:58;1.70;99.90
8778;DHT22;4425;50.872;4.712;2023-01-29T10:15:37;1.80;99.90
8778;DHT22;4425;50.872;4.712;2023-01-29T10:18:36;1.80;99.90
8778;DHT22;4425;50.872;4.712;2023-01-29T10:21:24;1.80;99.90
8778;DHT22;4425;50.872;4.712;2023-01-29T10:23:57;1.80;99.90
8778;DHT22;4425;50.872;4.712;2023-01-29T10:26:30;1.90;99.90
8778;DHT22;4425;50.872;4.712;2023-01-29T10:29:04;1.90;99.90
8778;DHT22;4425;50.872;4.712;2023-01-29T10:31:32;2.00;99.90
8778;DHT22;4425;50.872;4.712;2023-01-29T10:34:09;1.90;99.90
8778;DHT22;4425;50.872;4.712;2023-01-29T10:36:43;2.00;99.90
8778;DHT22;4425;50.872;4.712;2023-01-29T10:39:15;2.00;99.90
8778;DHT22;4425;50.872;4.712;2023-01-29T10:41:55;2.10;99.90
8778;DHT22;4425;50.872;4.712;2023-01-29T10:44:32;2.10;99.90
8778;DHT22;4425;50.872;4.712;2023-01-29T10:47:29;2.20;99.90
8778;DHT22;4425;50.872;4.712;2023-01-29T10:50:16;2.30;99.90
8778;DHT22;4425;50.872;4.712;2023-01-29T10:53:00;2.40;99.90
8778;DHT22;4425;50.872;4.712;2023-01-29T10:55:42;2.40;99.90
8778;DHT22;4425;50.872;4.712;2023-01-29T10:58:21;2.50;99.90
8778;DHT22;4425;50.872;4.712;2023-01-29T11:00:51;2.50;99.90
8778;DHT22;4425;50.872;4.712;2023-01-29T11:03:22;2.60;99.90
8778;DHT22;4425;50.872;4.712;2023-01-29T11:05:56;2.70;99.90
8778;DHT22;4425;50.872;4.712;2023-01-29T11:08:30;2.80;99.90
8778;DHT22;4425;50.872;4.712;2023-01-29T11:11:06;2.90;99.90
8778;DHT22;4425;50.872;4.712;2023-01-29T11:13:39;2.90;99.90
8778;DHT22;4425;50.872;4.712;2023-01-29T11:16:08;3.00;99.90
8778;DHT22;4425;50.872;4.712;2023-01-29T11:18:53;2.90;99.90
8778;DHT22;4425;50.872;4.712;2023-01-29T11:21:21;2.90;99.90
8778;DHT22;4425;50.872;4.712;2023-01-29T11:24:04;2.90;99.90
8778;DHT22;4425;50.872;4.712;2023-01-29T11:26:37;2.90;99.90
8778;DHT22;4425;50.872;4.712;2023-01-29T11:29:31;2.90;99.90
8778;DHT22;4425;50.872;4.712;2023-01-29T11:32:24;2.90;99.90
8778;DHT22;4425;50.872;4.712;2023-01-29T11:34:57;3.10;99.90
8778;DHT22;4425;50.872;4.712;2023-01-29T11:37:35;3.10;99.90
8778;DHT22;4425;50.872;4.712;2023-01-29T11:43:30;3.20;99.90
8778;DHT22;4425;50.872;4.712;2023-01-29T11:46:02;3.20;99.90
8778;DHT22;4425;50.872;4.712;2023-01-29T11:48:56;3.20;99.90
8778;DHT22;4425;50.872;4.712;2023-01-29T11:51:25;3.30;99.90
8778;DHT22;4425;50.872;4.712;2023-01-29T11:53:55;3.40;99.90
8778;DHT22;4425;50.872;4.712;2023-01-29T11:56:28;3.40;99.90
8778;DHT22;4425;50.872;4.712;2023-01-29T11:59:05;3.50;99.90
8778;DHT22;4425;50.872;4.712;2023-01-29T12:01:36;3.50;99.90
8778;DHT22;4425;50.872;4.712;2023-01-29T12:04:16;3.60;99.90
8778;DHT22;4425;50.872;4.712;2023-01-29T12:06:49;3.70;99.90
8778;DHT22;4425;50.872;4.712;2023-01-29T12:09:25;3.60;99.90
8778;DHT22;4425;50.872;4.712;2023-01-29T12:11:53;3.60;99.90
8778;DHT22;4425;50.872;4.712;2023-01-29T12:14:28;3.60;99.90
8778;DHT22;4425;50.872;4.712;2023-01-29T12:17:05;3.70;99.90
8778;DHT22;4425;50.872;4.712;2023-01-29T12:19:37;3.80;99.90
8778;DHT22;4425;50.872;4.712;2023-01-29T12:22:13;3.80;99.90
8778;DHT22;4425;50.872;4.712;2023-01-29T12:24:48;3.80;99.90
8778;DHT22;4425;50.872;4.712;2023-01-29T12:27:21;3.90;99.90
8778;DHT22;4425;50.872;4.712;2023-01-29T12:29:56;3.90;99.90
8778;DHT22;4425;50.872;4.712;2023-01-29T12:32:31;4.00;99.90
8778;DHT22;4425;50.872;4.712;2023-01-29T12:35:06;4.00;99.90
8778;DHT22;4425;50.872;4.712;2023-01-29T12:37:43;4.10;99.90
8778;DHT22;4425;50.872;4.712;2023-01-29T12:40:13;4.10;99.90
8778;DHT22;4425;50.872;4.712;2023-01-29T12:42:44;4.20;99.90
8778;DHT22;4425;50.872;4.712;2023-01-29T12:45:18;4.30;99.90
8778;DHT22;4425;50.872;4.712;2023-01-29T12:47:48;4.40;99.90
8778;DHT22;4425;50.872;4.712;2023-01-29T12:50:19;4.40;99.90
8778;DHT22;4425;50.872;4.712;2023-01-29T12:52:49;4.40;99.90
8778;DHT22;4425;50.872;4.712;2023-01-29T12:55:21;4.40;99.90
8778;DHT22;4425;50.872;4.712;2023-01-29T12:57:53;4.40;99.90
8778;DHT22;4425;50.872;4.712;2023-01-29T13:00:37;4.50;99.90
8778;DHT22;4425;50.872;4.712;2023-01-29T13:03:16;4.50;99.90
8778;DHT22;4425;50.872;4.712;2023-01-29T13:05:49;4.40;99.90
8778;DHT22;4425;50.872;4.712;2023-01-29T13:08:22;4.40;99.90
8778;DHT22;4425;50.872;4.712;2023-01-29T13:10:53;4.30;99.90
8778;DHT22;4425;50.872;4.712;2023-01-29T13:13:27;4.30;99.90
8778;DHT22;4425;50.872;4.712;2023-01-29T13:15:59;4.40;99.90
8778;DHT22;4425;50.872;4.712;2023-01-29T13:18:40;4.50;99.90
8778;DHT22;4425;50.872;4.712;2023-01-29T13:21:18;4.50;99.90
8778;DHT22;4425;50.872;4.712;2023-01-29T13:23:48;4.60;99.90
8778;DHT22;4425;50.872;4.712;2023-01-29T13:26:17;4.60;99.90
8778;DHT22;4425;50.872;4.712;2023-01-29T13:28:48;4.60;99.90
8778;DHT22;4425;50.872;4.712;2023-01-29T13:31:33;4.70;99.90
8778;DHT22;4425;50.872;4.712;2023-01-29T13:34:08;4.90;99.90
8778;DHT22;4425;50.872;4.712;2023-01-29T13:36:42;4.90;99.90
8778;DHT22;4425;50.872;4.712;2023-01-29T13:39:18;4.90;99.90
8778;DHT22;4425;50.872;4.712;2023-01-29T13:41:47;5.00;99.90
8778;DHT22;4425;50.872;4.712;2023-01-29T13:44:21;5.00;99.90
8778;DHT22;4425;50.872;4.712;2023-01-29T13:46:57;5.10;99.90
8778;DHT22;4425;50.872;4.712;2023-01-29T13:49:38;5.10;99.90
8778;DHT22;4425;50.872;4.712;2023-01-29T13:52:25;4.90;99.90
8778;DHT22;4425;50.872;4.712;2023-01-29T13:54:57;5.00;99.90
8778;DHT22;4425;50.872;4.712;2023-01-29T13:57:48;4.90;99.90
8778;DHT22;4425;50.872;4.712;2023-01-29T14:04:05;4.70;99.90
8778;DHT22;4425;50.872;4.712;2023-01-29T14:10:25;4.60;99.90
8778;DHT22;4425;50.872;4.712;2023-01-29T14:12:54;4.60;99.90
8778;DHT22;4425;50.872;4.712;2023-01-29T14:15:38;4.70;99.90
8778;DHT22;4425;50.872;4.712;2023-01-29T14:18:24;4.60;99.90
8778;DHT22;4425;50.872;4.712;2023-01-29T14:21:04;4.60;99.90
8778;DHT22;4425;50.872;4.712;2023-01-29T14:23:42;4.60;99.90
8778;DHT22;4425;50.872;4.712;2023-01-29T14:26:27;4.60;99.90
8778;DHT22;4425;50.872;4.712;2023-01-29T14:29:04;4.50;99.90
8778;DHT22;4425;50.872;4.712;2023-01-29T14:31:39;4.50;99.90
8778;DHT22;4425;50.872;4.712;2023-01-29T14:34:15;4.60;99.90
8778;DHT22;4425;50.872;4.712;2023-01-29T14:36:48;4.70;99.90
8778;DHT22;4425;50.872;4.712;2023-01-29T14:39:24;4.80;99.90
8778;DHT22;4425;50.872;4.712;2023-01-29T14:41:57;4.70;99.90
8778;DHT22;4425;50.872;4.712;2023-01-29T14:48:19;4.70;99.90
8778;DHT22;4425;50.872;4.712;2023-01-29T14:51:11;4.60;99.90
8778;DHT22;4425;50.872;4.712;2023-01-29T14:54:01;4.70;99.90
8778;DHT22;4425;50.872;4.712;2023-01-29T14:56:40;4.70;99.90
8778;DHT22;4425;50.872;4.712;2023-01-29T14:59:18;4.60;99.90
8778;DHT22;4425;50.872;4.712;2023-01-29T15:01:52;4.60;99.90
8778;DHT22;4425;50.872;4.712;2023-01-29T15:04:42;4.60;99.90
8778;DHT22;4425;50.872;4.712;2023-01-29T15:07:22;4.50;99.90
8778;DHT22;4425;50.872;4.712;2023-01-29T15:10:03;4.50;99.90
8778;DHT22;4425;50.872;4.712;2023-01-29T15:12:44;4.50;99.90
8778;DHT22;4425;50.872;4.712;2023-01-29T15:15:16;4.50;99.90
8778;DHT22;4425;50.872;4.712;2023-01-29T15:17:53;4.50;99.90
8778;DHT22;4425;50.872;4.712;2023-01-29T15:20:28;4.50;99.90
8778;DHT22;4425;50.872;4.712;2023-01-29T15:22:56;4.40;99.90
8778;DHT22;4425;50.872;4.712;2023-01-29T15:25:30;4.40;99.90
8778;DHT22;4425;50.872;4.712;2023-01-29T15:28:03;4.40;99.90
8778;DHT22;4425;50.872;4.712;2023-01-29T15:30:37;4.40;99.90
8778;DHT22;4425;50.872;4.712;2023-01-29T15:33:12;4.30;99.90
8778;DHT22;4425;50.872;4.712;2023-01-29T15:35:43;4.30;99.90
8778;DHT22;4425;50.872;4.712;2023-01-29T15:38:18;4.30;99.90
8778;DHT22;4425;50.872;4.712;2023-01-29T15:40:54;4.30;99.90
8778;DHT22;4425;50.872;4.712;2023-01-29T15:43:34;4.30;99.90
8778;DHT22;4425;50.872;4.712;2023-01-29T15:46:14;4.20;99.90
8778;DHT22;4425;50.872;4.712;2023-01-29T15:48:58;4.20;99.90
8778;DHT22;4425;50.872;4.712;2023-01-29T15:54:11;4.30;99.90
8778;DHT22;4425;50.872;4.712;2023-01-29T15:56:56;4.40;99.90
8778;DHT22;4425;50.872;4.712;2023-01-29T15:59:42;4.40;99.90
8778;DHT22;4425;50.872;4.712;2023-01-29T16:02:36;4.40;99.90
8778;DHT22;4425;50.872;4.712;2023-01-29T16:05:09;4.30;99.90
8778;DHT22;4425;50.872;4.712;2023-01-29T16:07:37;4.40;99.90
8778;DHT22;4425;50.872;4.712;2023-01-29T16:10:12;4.30;99.90
8778;DHT22;4425;50.872;4.712;2023-01-29T16:12:41;4.30;99.90
8778;DHT22;4425;50.872;4.712;2023-01-29T16:15:20;4.30;99.90
8778;DHT22;4425;50.872;4.712;2023-01-29T16:17:48;4.30;99.90
8778;DHT22;4425;50.872;4.712;2023-01-29T16:20:30;4.10;99.90
8778;DHT22;4425;50.872;4.712;2023-01-29T16:22:58;4.30;99.90
8778;DHT22;4425;50.872;4.712;2023-01-29T16:25:27;4.30;99.90
8778;DHT22;4425;50.872;4.712;2023-01-29T16:27:57;4.30;99.90
8778;DHT22;4425;50.872;4.712;2023-01-29T16:30:25;4.20;99.90
8778;DHT22;4425;50.872;4.712;2023-01-29T16:32:59;4.20;99.90
8778;DHT22;4425;50.872;4.712;2023-01-29T16:35:26;4.40;99.90
8778;DHT22;4425;50.872;4.712;2023-01-29T16:37:58;4.20;99.90
8778;DHT22;4425;50.872;4.712;2023-01-29T16:47:21;4.10;99.90
8778;DHT22;4425;50.872;4.712;2023-01-29T16:49:52;4.10;99.90
8778;DHT22;4425;50.872;4.712;2023-01-29T16:52:23;4.10;99.90
8778;DHT22;4425;50.872;4.712;2023-01-29T16:54:55;4.10;99.90
8778;DHT22;4425;50.872;4.712;2023-01-29T16:57:26;4.00;99.90
8778;DHT22;4425;50.872;4.712;2023-01-29T16:59:57;4.10;99.90
8778;DHT22;4425;50.872;4.712;2023-01-29T17:02:42;4.20;99.90
8778;DHT22;4425;50.872;4.712;2023-01-29T17:05:18;4.10;99.90
8778;DHT22;4425;50.872;4.712;2023-01-29T17:07:48;4.10;99.90
8778;DHT22;4425;50.872;4.712;2023-01-29T17:10:18;4.10;99.90
8778;DHT22;4425;50.872;4.712;2023-01-29T17:12:54;4.00;99.90
8778;DHT22;4425;50.872;4.712;2023-01-29T17:15:50;3.90;99.90
8778;DHT22;4425;50.872;4.712;2023-01-29T17:18:35;3.90;99.90
8778;DHT22;4425;50.872;4.712;2023-01-29T17:21:03;4.00;99.90
8778;DHT22;4425;50.872;4.712;2023-01-29T17:23:31;4.00;99.90
8778;DHT22;4425;50.872;4.712;2023-01-29T17:26:01;3.90;99.90
8778;DHT22;4425;50.872;4.712;2023-01-29T17:28:32;3.90;99.90
8778;DHT22;4425;50.872;4.712;2023-01-29T17:31:03;3.90;99.90